createdAt,value
2022-09-13T00:06:39.433Z,13.60
2022-09-13T00:14:43.958Z,10.82
2022-09-13T00:18:46.314Z,10.40
2022-09-13T00:22:48.250Z,10.50
2022-09-13T00:30:52.396Z,9.80
2022-09-13T00:34:54.254Z,10.07
2022-09-13T00:38:56.191Z,9.98
2022-09-13T00:47:00.649Z,10.05
2022-09-13T00:51:03.854Z,12.00
2022-09-13T00:55:13.591Z,11.68
2022-09-13T00:59:31.898Z,11.85
2022-09-13T01:03:35.657Z,12.88
2022-09-13T01:07:38.270Z,13.88
2022-09-13T01:11:49.210Z,14.55
2022-09-13T01:15:52.040Z,15.13
2022-09-13T01:19:54.274Z,14.63
2022-09-13T01:24:05.284Z,14.98
2022-09-13T01:28:38.078Z,15.70
2022-09-13T01:32:58.041Z,15.02
2022-09-13T01:37:41.910Z,15.55
2022-09-13T01:42:11.066Z,15.27
2022-09-13T01:46:24.784Z,14.23
2022-09-13T01:50:29.536Z,14.13
2022-09-13T01:54:40.487Z,13.77
2022-09-13T01:59:04.309Z,11.25
2022-09-13T02:03:18.511Z,10.23
2022-09-13T02:07:27.793Z,8.57
2022-09-13T02:11:31.298Z,6.82
2022-09-13T02:15:45.113Z,5.55
2022-09-13T02:19:58.298Z,4.60
2022-09-13T02:24:12.266Z,3.30
2022-09-13T02:28:21.771Z,2.67
2022-09-13T02:32:52.762Z,2.92
2022-09-13T02:36:56.426Z,2.22
2022-09-13T02:41:16.384Z,2.15
2022-09-13T02:45:21.423Z,2.28
2022-09-13T02:49:44.141Z,1.95
2022-09-13T02:54:23.080Z,2.08
2022-09-13T02:58:27.377Z,2.83
2022-09-13T03:02:33.487Z,2.30
2022-09-13T03:06:35.442Z,2.47
2022-09-13T03:11:12.658Z,1.88
2022-09-13T03:15:14.445Z,2.47
2022-09-13T03:19:35.862Z,1.60
2022-09-13T03:23:37.887Z,1.70
2022-09-13T03:32:00.205Z,1.20
2022-09-13T03:36:40.363Z,1.67
2022-09-13T03:41:04.754Z,1.95
2022-09-13T03:45:09.173Z,1.30
2022-09-13T03:49:15.480Z,1.60
2022-09-13T03:53:26.064Z,1.30
2022-09-13T03:57:27.992Z,1.35
2022-09-13T04:01:30.114Z,1.63
2022-09-13T04:05:32.045Z,1.77
2022-09-13T04:09:34.203Z,1.30
2022-09-13T04:13:36.942Z,1.10
2022-09-13T04:17:38.809Z,1.23
2022-09-13T04:21:41.143Z,1.35
2022-09-13T04:25:43.017Z,1.13
2022-09-13T04:29:44.949Z,1.50
2022-09-13T04:33:46.854Z,1.30
2022-09-13T04:37:48.781Z,1.55
2022-09-13T04:41:52.043Z,1.40
2022-09-13T04:45:53.963Z,1.80
2022-09-13T04:49:55.925Z,1.42
2022-09-13T04:53:57.784Z,1.35
2022-09-13T04:57:59.642Z,1.25
2022-09-13T05:02:01.560Z,1.65
2022-09-13T05:06:04.350Z,1.83
2022-09-13T05:10:06.782Z,1.30
2022-09-13T05:14:12.299Z,1.42
2022-09-13T05:18:14.240Z,1.50
2022-09-13T05:22:16.127Z,3.40
2022-09-13T05:26:18.545Z,1.33
2022-09-13T05:30:20.827Z,1.20
2022-09-13T05:34:22.724Z,1.38
2022-09-13T05:38:25.048Z,1.83
2022-09-13T05:42:26.936Z,1.40
2022-09-13T05:46:28.891Z,1.55
2022-09-13T05:54:52.638Z,1.67
2022-09-13T05:58:55.450Z,1.35
2022-09-13T06:02:57.383Z,1.17
2022-09-13T06:06:59.243Z,1.50
2022-09-13T06:11:02.482Z,1.98
2022-09-13T06:15:04.683Z,0.75
2022-09-13T06:19:06.911Z,1.58
2022-09-13T06:23:08.816Z,1.48
2022-09-13T06:27:10.779Z,1.50
2022-09-13T06:31:15.129Z,1.42
2022-09-13T06:35:17.977Z,1.83
2022-09-13T06:39:19.844Z,1.20
2022-09-13T06:43:21.673Z,1.77
2022-09-13T06:47:23.630Z,1.40
2022-09-13T06:51:26.176Z,1.00
2022-09-13T06:55:28.151Z,1.30
2022-09-13T06:59:30.051Z,1.00
2022-09-13T07:03:31.944Z,1.52
2022-09-13T07:07:33.813Z,1.10
2022-09-13T07:11:41.094Z,1.38
2022-09-13T07:15:42.967Z,1.23
2022-09-13T07:19:44.920Z,1.45
2022-09-13T07:23:47.000Z,0.82
2022-09-13T07:31:54.542Z,1.13
2022-09-13T07:35:57.717Z,1.52
2022-09-13T07:39:59.803Z,1.00
2022-09-13T07:44:02.197Z,1.30
2022-09-13T07:48:04.191Z,1.02
2022-09-13T07:56:12.024Z,1.10
2022-09-13T08:00:14.450Z,1.33
2022-09-13T08:04:18.979Z,1.00
2022-09-13T08:08:20.867Z,1.40
2022-09-13T08:12:22.829Z,1.30
2022-09-13T08:20:27.449Z,1.27
2022-09-13T08:24:29.482Z,1.50
2022-09-13T08:36:36.176Z,1.42
2022-09-13T08:40:44.152Z,1.15
2022-09-13T08:44:54.265Z,1.10
2022-09-13T08:49:00.987Z,1.95
2022-09-13T08:53:18.285Z,0.98
2022-09-13T08:57:38.612Z,1.35
2022-09-13T09:01:48.500Z,1.13
2022-09-13T09:05:52.347Z,1.42
2022-09-13T09:10:01.717Z,1.60
2022-09-13T09:14:33.244Z,1.08
2022-09-13T09:18:44.782Z,1.30
2022-09-13T09:22:48.752Z,1.08
2022-09-13T09:26:50.894Z,0.90
2022-09-13T09:31:14.421Z,1.50
2022-09-13T09:35:34.282Z,1.27
2022-09-13T09:39:39.983Z,0.90
2022-09-13T09:43:49.730Z,1.05
2022-09-13T09:47:53.523Z,1.10
2022-09-13T09:51:56.583Z,1.38
2022-09-13T09:56:17.467Z,0.93
2022-09-13T10:00:20.610Z,1.52
2022-09-13T10:04:23.020Z,1.38
2022-09-13T10:08:31.796Z,1.42
2022-09-13T10:12:36.140Z,1.80
2022-09-13T10:16:38.119Z,1.05
2022-09-13T10:24:42.000Z,1.50
2022-09-13T10:32:56.832Z,1.48
2022-09-13T10:37:04.541Z,1.17
2022-09-13T10:41:21.969Z,1.35
2022-09-13T10:45:27.421Z,1.63
2022-09-13T10:49:50.641Z,1.40
2022-09-13T10:54:17.728Z,1.30
2022-09-13T10:58:20.214Z,1.13
2022-09-13T11:02:59.262Z,1.73
2022-09-13T11:07:22.052Z,1.73
2022-09-13T11:11:38.282Z,2.08
2022-09-13T11:16:04.458Z,1.70
2022-09-13T11:20:13.321Z,2.45
2022-09-13T11:24:40.377Z,1.80
2022-09-13T11:28:51.557Z,1.75
2022-09-13T11:33:12.337Z,1.50
2022-09-13T11:37:14.363Z,0.95
2022-09-13T11:41:28.275Z,1.20
2022-09-13T11:45:36.193Z,1.40
2022-09-13T11:49:47.209Z,1.23
2022-09-13T11:54:01.085Z,1.35
2022-09-13T11:58:06.307Z,2.13
2022-09-13T12:02:37.074Z,1.48
2022-09-13T12:06:46.410Z,1.10
2022-09-13T12:10:53.830Z,1.40
2022-09-13T12:15:04.996Z,1.40
2022-09-13T12:19:28.618Z,0.70
2022-09-13T12:23:36.107Z,1.83
2022-09-13T12:27:56.889Z,1.17
2022-09-13T12:32:02.675Z,0.98
2022-09-13T12:36:26.479Z,1.30
2022-09-13T12:40:53.770Z,1.48
2022-09-13T12:45:04.409Z,1.50
2022-09-13T12:49:35.210Z,2.15
2022-09-13T12:53:55.913Z,1.20
2022-09-13T12:58:06.825Z,0.90
2022-09-13T13:02:30.762Z,0.90
2022-09-13T13:06:37.453Z,1.13
2022-09-13T13:10:39.358Z,0.80
2022-09-13T13:18:48.583Z,0.90
2022-09-13T13:22:52.281Z,1.00
2022-09-13T13:26:56.975Z,0.90
2022-09-13T13:30:59.243Z,0.90
2022-09-13T13:35:38.978Z,1.13
2022-09-13T13:39:46.208Z,0.80
2022-09-13T13:43:48.096Z,1.58
2022-09-13T13:48:06.116Z,1.15
2022-09-13T13:52:11.539Z,1.10
2022-09-13T13:56:19.214Z,1.10
2022-09-13T14:00:24.367Z,0.70
2022-09-13T14:04:51.458Z,0.60
2022-09-13T14:09:11.391Z,0.88
2022-09-13T14:13:37.692Z,0.70
2022-09-13T14:18:21.588Z,0.90
2022-09-13T14:22:24.430Z,1.25
2022-09-13T14:26:26.457Z,0.90
2022-09-13T14:34:38.762Z,1.13
2022-09-13T14:38:57.182Z,1.10
2022-09-13T14:42:59.110Z,1.08
2022-09-13T14:51:26.741Z,0.93
2022-09-13T14:55:33.612Z,1.08
2022-09-13T15:00:00.933Z,1.10
2022-09-13T15:04:04.845Z,1.60
